Le Mars, IA

7:59 PM CST on January 16, 2018 (GMT -0600)
Le Mars Municipal

Weather History for KLRJ - March, 2012

Change the Weather History Date:

Monday, March 19, 2012

  Actual Average Record
Temperature  
Mean Temperature 65 °F -  
Max Temperature 75 °F 47 °F 77 °F (1976)
Min Temperature 55 °F 26 °F 4 °F (1989)
Growing Degree Days 15 (Base 50)    
Moisture  
Dew Point 55 °F    
Average Humidity 72    
Maximum Humidity 88    
Minimum Humidity 38    
Precipitation  
Precipitation 0.00 in - - ()
Sea Level Pressure  
Sea Level Pressure 29.61 in    
Wind  
Wind Speed 19 mph (South)    
Max Wind Speed 29 mph    
Max Gust Speed 36 mph    
Visibility 10 miles    
Events Rain    
Averages and records for this station are not official NWS values.
T = Trace of Precipitation, MM = Missing Value Source: NWS Daily Summary

Daily Weather History Graph

Daily Weather History Graph

Search for Another Location

Airport or City:

Trip Planner

Search our weather history database for the weather conditions in past years. The results will help you decide how hot, cold, wet, or windy it might be!

Date:

Astronomy

Mar. 19, 2012 Rise Set
Actual Time 7:28 AM CDT 7:36 PM CDT
Civil Twilight 7:00 AM CDT 8:04 PM CDT
Nautical Twilight 6:27 AM CDT 8:37 PM CDT
Astronomical Twilight 5:54 AM CDT 9:11 PM CDT
Moon 5:44 AM CDT (3/19) 5:03 PM CDT (3/19)
Length of Visible Light 13h 04m
Length of Day
12h 07m
Waning Crescent, 8% of the Moon is Illuminated
Mar 19
Waning Crescent
Mar 22
New
Mar 30
First Quarter
Apr 6
Full
Apr 13
Last Quarter

Hourly Weather History & Observations

Time (CDT) Temp. Dew Point Humidity Pressure Visibility Wind Dir Wind Speed Gust Speed Precip Events Conditions
12:15 AM 66.2 °F 57.2 °F 73% 29.65 in 10.0 mi South 24.2 mph 29.9 mph N/A   Overcast
12:35 AM 66.2 °F 57.2 °F 73% 29.65 in 10.0 mi South 21.9 mph 26.5 mph N/A   Overcast
12:55 AM 66.2 °F 57.2 °F 73% 29.65 in 10.0 mi South 24.2 mph 32.2 mph N/A   Overcast
1:15 AM 66.2 °F 57.2 °F 73% 29.64 in 10.0 mi South 23.0 mph 29.9 mph N/A   Overcast
1:35 AM 66.2 °F 57.2 °F 73% 29.64 in 10.0 mi South 19.6 mph 27.6 mph N/A   Overcast
1:55 AM 66.2 °F 57.2 °F 73% 29.64 in 10.0 mi South 18.4 mph 28.8 mph N/A   Overcast
2:15 AM 66.2 °F 57.2 °F 73% 29.64 in 10.0 mi South 20.7 mph 28.8 mph N/A   Overcast
2:35 AM 66.2 °F 57.2 °F 73% 29.64 in 10.0 mi South 19.6 mph 26.5 mph N/A   Overcast
2:55 AM 66.2 °F 57.2 °F 73% 29.63 in 10.0 mi South 17.3 mph 27.6 mph N/A   Overcast
3:15 AM 66.2 °F 57.2 °F 73% 29.62 in 10.0 mi South 18.4 mph 26.5 mph N/A   Overcast
4:15 AM 66.2 °F 57.2 °F 73% 29.61 in 10.0 mi South 19.6 mph 27.6 mph N/A   Overcast
4:35 AM 66.2 °F 57.2 °F 73% 29.60 in 10.0 mi South 17.3 mph 26.5 mph N/A   Overcast
4:55 AM 66.2 °F 57.2 °F 73% 29.60 in 10.0 mi South 18.4 mph 23.0 mph N/A   Overcast
5:15 AM 66.2 °F 57.2 °F 73% 29.60 in 10.0 mi South 17.3 mph 20.7 mph N/A   Mostly Cloudy
5:35 AM 64.4 °F 57.2 °F 77% 29.60 in 10.0 mi South 15.0 mph - N/A   Mostly Cloudy
5:55 AM 64.4 °F 57.2 °F 77% 29.61 in 10.0 mi South 16.1 mph 19.6 mph N/A   Mostly Cloudy
6:15 AM 64.4 °F 57.2 °F 77% 29.61 in 10.0 mi South 15.0 mph - N/A   Overcast
6:35 AM 64.4 °F 57.2 °F 77% 29.61 in 10.0 mi South 17.3 mph 23.0 mph N/A   Mostly Cloudy
7:15 AM 64.4 °F 57.2 °F 77% 29.60 in 10.0 mi South 18.4 mph 25.3 mph N/A   Clear
7:35 AM 64.4 °F 57.2 °F 77% 29.61 in 10.0 mi South 19.6 mph 26.5 mph N/A   Scattered Clouds
7:55 AM 64.4 °F 57.2 °F 77% 29.61 in 10.0 mi South 19.6 mph 26.5 mph N/A   Mostly Cloudy
8:15 AM 66.2 °F 57.2 °F 73% 29.62 in 10.0 mi South 21.9 mph 26.5 mph N/A   Mostly Cloudy
8:35 AM 66.2 °F 57.2 °F 73% 29.62 in 10.0 mi South 17.3 mph 25.3 mph N/A   Scattered Clouds
8:55 AM 66.2 °F 57.2 °F 73% 29.61 in 10.0 mi South 17.3 mph 24.2 mph N/A   Clear
9:15 AM 68.0 °F 57.2 °F 68% 29.61 in 10.0 mi South 18.4 mph 26.5 mph N/A   Clear
9:55 AM 69.8 °F 57.2 °F 64% 29.62 in 10.0 mi South 24.2 mph 31.1 mph N/A   Mostly Cloudy
10:15 AM 69.8 °F 57.2 °F 64% 29.62 in 10.0 mi South 20.7 mph 27.6 mph N/A   Overcast
10:35 AM 71.6 °F 57.2 °F 60% 29.61 in 10.0 mi South 24.2 mph 32.2 mph N/A   Mostly Cloudy
10:55 AM 71.6 °F 57.2 °F 60% 29.61 in 10.0 mi South 21.9 mph 28.8 mph N/A   Scattered Clouds
11:15 AM 71.6 °F 57.2 °F 60% 29.60 in 10.0 mi South 28.8 mph 35.7 mph N/A   Scattered Clouds
11:35 AM 73.4 °F 57.2 °F 57% 29.59 in 10.0 mi South 25.3 mph 34.5 mph N/A   Mostly Cloudy
11:55 AM 73.4 °F 57.2 °F 57% 29.58 in 10.0 mi South 24.2 mph 32.2 mph N/A   Mostly Cloudy
12:15 PM 73.4 °F 57.2 °F 57% 29.57 in 10.0 mi South 24.2 mph 32.2 mph N/A   Mostly Cloudy
12:35 PM 73.4 °F 57.2 °F 57% 29.58 in 10.0 mi South 28.8 mph 35.7 mph N/A   Mostly Cloudy
12:55 PM 64.4 °F 55.4 °F 73% 29.60 in 7.0 mi SW 13.8 mph 34.5 mph N/A Rain Light Rain
1:15 PM 66.2 °F 57.2 °F 73% 29.60 in 10.0 mi SSW 11.5 mph - N/A   Mostly Cloudy
1:35 PM 71.6 °F 55.4 °F 57% 29.58 in 10.0 mi SSW 11.5 mph - N/A   Scattered Clouds
1:55 PM 73.4 °F 53.6 °F 50% 29.56 in 10.0 mi SSW 13.8 mph 18.4 mph N/A   Scattered Clouds
2:15 PM 75.2 °F 48.2 °F 38% 29.56 in 10.0 mi SSW 18.4 mph 23.0 mph N/A   Clear
2:35 PM 71.6 °F 46.4 °F 41% 29.55 in 10.0 mi SSW 15.0 mph 20.7 mph N/A   Mostly Cloudy
2:55 PM 71.6 °F 46.4 °F 41% 29.56 in 10.0 mi SSW 19.6 mph 23.0 mph N/A   Overcast
3:35 PM 64.4 °F 51.8 °F 64% 29.59 in 10.0 mi SW 23.0 mph 27.6 mph N/A   Light Drizzle
3:55 PM 62.6 °F 53.6 °F 72% 29.61 in 10.0 mi SW 18.4 mph 27.6 mph N/A   Drizzle
4:15 PM 60.8 °F 53.6 °F 77% 29.61 in 10.0 mi SSW 16.1 mph 20.7 mph N/A   Drizzle
4:35 PM 59.0 °F 53.6 °F 82% 29.60 in 10.0 mi South 11.5 mph - N/A   Light Drizzle
4:55 PM 60.8 °F 53.6 °F 77% 29.58 in 10.0 mi South 13.8 mph - N/A   Drizzle
5:15 PM 60.8 °F 53.6 °F 77% 29.58 in 10.0 mi South 13.8 mph - N/A   Scattered Clouds
5:35 PM 60.8 °F 53.6 °F 77% 29.59 in 10.0 mi South 17.3 mph 23.0 mph N/A   Scattered Clouds
5:55 PM 60.8 °F 51.8 °F 72% 29.57 in 10.0 mi South 16.1 mph 25.3 mph N/A   Scattered Clouds
6:15 PM 60.8 °F 51.8 °F 72% 29.55 in 10.0 mi South 17.3 mph 23.0 mph N/A   Scattered Clouds
6:35 PM 59.0 °F 51.8 °F 77% 29.54 in 10.0 mi SSE 16.1 mph - N/A   Clear
6:55 PM 59.0 °F 51.8 °F 77% 29.56 in 10.0 mi South 11.5 mph - N/A   Clear
7:15 PM 59.0 °F 51.8 °F 77% 29.58 in 10.0 mi SW 9.2 mph - N/A   Scattered Clouds
7:35 PM 57.2 °F 51.8 °F 82% 29.58 in 10.0 mi SW 9.2 mph - N/A   Mostly Cloudy
7:55 PM 57.2 °F 51.8 °F 82% 29.59 in 10.0 mi SW 17.3 mph - N/A   Overcast
8:15 PM 57.2 °F 51.8 °F 82% 29.59 in 10.0 mi SW 11.5 mph 17.3 mph N/A   Overcast
8:35 PM 57.2 °F 51.8 °F 82% 29.61 in 10.0 mi SW 8.1 mph - N/A   Overcast
8:55 PM 57.2 °F 51.8 °F 82% 29.62 in 10.0 mi SSW 11.5 mph - N/A   Overcast
9:15 PM 57.2 °F 51.8 °F 82% 29.63 in 10.0 mi SSW 10.4 mph - N/A   Overcast
9:35 PM 57.2 °F 51.8 °F 82% 29.65 in 10.0 mi SSW 11.5 mph - N/A   Overcast
9:55 PM 57.2 °F 51.8 °F 82% 29.64 in 10.0 mi SSW 9.2 mph - N/A   Overcast
10:15 PM 57.2 °F 51.8 °F 82% 29.64 in 10.0 mi South 6.9 mph - N/A   Mostly Cloudy
10:35 PM 57.2 °F 51.8 °F 82% 29.64 in 10.0 mi South 8.1 mph - N/A   Overcast
10:55 PM 55.4 °F 51.8 °F 88% 29.66 in 10.0 mi South 6.9 mph - N/A   Mostly Cloudy
11:15 PM 55.4 °F 51.8 °F 88% 29.66 in 10.0 mi South 8.1 mph - N/A   Overcast
11:35 PM 55.4 °F 51.8 °F 88% 29.66 in 10.0 mi South 8.1 mph - N/A   Overcast